createdAt,value
2019-04-05T00:00:43.693Z,41.60
2019-04-05T00:01:45.908Z,40.20
2019-04-05T00:02:48.198Z,37.80
2019-04-05T00:03:50.664Z,40.20
2019-04-05T00:04:52.980Z,40.60
2019-04-05T00:05:55.359Z,39.00
2019-04-05T00:06:57.965Z,40.20
2019-04-05T00:08:00.353Z,38.80
2019-04-05T00:09:05.295Z,42.80
2019-04-05T00:10:08.220Z,39.60
2019-04-05T00:11:11.393Z,40.00
2019-04-05T00:12:13.530Z,41.00
2019-04-05T00:13:15.530Z,39.60
2019-04-05T00:14:17.638Z,43.00
2019-04-05T00:15:20.322Z,38.80
2019-04-05T00:16:22.083Z,37.60
2019-04-05T00:17:24.253Z,40.40
2019-04-05T00:18:26.357Z,40.00
2019-04-05T00:19:28.487Z,40.20
2019-04-05T00:20:30.594Z,39.20
2019-04-05T00:21:32.795Z,39.80
2019-04-05T00:22:35.097Z,40.40
2019-04-05T00:23:37.516Z,38.40
2019-04-05T00:24:39.884Z,40.60
2019-04-05T00:25:43.128Z,41.60
2019-04-05T00:26:45.485Z,43.40
2019-04-05T00:27:47.519Z,40.80
2019-04-05T00:28:51.729Z,42.40
2019-04-05T00:29:53.794Z,43.60
2019-04-05T00:30:56.122Z,39.80
2019-04-05T00:31:58.205Z,42.20
2019-04-05T00:33:00.257Z,40.20
2019-04-05T00:34:04.169Z,40.20
2019-04-05T00:35:06.819Z,41.00
2019-04-05T00:36:09.111Z,40.00
2019-04-05T00:37:11.697Z,38.80
2019-04-05T00:38:14.137Z,39.40
2019-04-05T00:39:16.436Z,39.60
2019-04-05T00:40:18.456Z,42.80
2019-04-05T00:41:21.118Z,38.20
2019-04-05T00:42:23.569Z,39.80
2019-04-05T00:43:25.875Z,37.40
2019-04-05T00:44:27.973Z,42.40
2019-04-05T00:45:30.299Z,40.00
2019-04-05T00:46:32.551Z,38.00
2019-04-05T00:47:35.600Z,40.00
2019-04-05T00:48:37.679Z,39.20
2019-04-05T00:49:40.058Z,42.00
2019-04-05T00:50:42.158Z,39.80
2019-04-05T00:51:44.421Z,39.20
2019-04-05T00:52:46.747Z,38.00
2019-04-05T00:53:49.148Z,38.00
2019-04-05T00:54:51.683Z,40.60
2019-04-05T00:55:53.813Z,38.80
2019-04-05T00:56:56.177Z,41.60
2019-04-05T00:57:58.184Z,41.80
2019-04-05T00:59:00.603Z,37.60
2019-04-05T01:00:05.062Z,40.00
2019-04-05T01:01:07.416Z,40.60
2019-04-05T01:02:09.447Z,38.80
2019-04-05T01:03:13.155Z,40.00
2019-04-05T01:04:15.848Z,39.20
2019-04-05T01:05:18.523Z,39.00
2019-04-05T01:06:21.272Z,39.20
2019-04-05T01:07:23.614Z,39.00
2019-04-05T01:08:25.977Z,40.00
2019-04-05T01:09:27.755Z,38.40
2019-04-05T01:10:30.255Z,37.00
2019-04-05T01:11:32.453Z,39.80
2019-04-05T01:12:35.880Z,39.00
2019-04-05T01:13:37.671Z,38.20
2019-04-05T01:14:40.186Z,38.80
2019-04-05T01:15:42.201Z,38.20
2019-04-05T01:16:44.490Z,38.40
2019-04-05T01:17:46.979Z,39.60
2019-04-05T01:18:48.792Z,39.40
2019-04-05T01:19:53.882Z,39.80
2019-04-05T01:21:01.462Z,40.00
2019-04-05T01:22:04.832Z,38.80
2019-04-05T01:23:09.216Z,39.40
2019-04-05T01:24:12.532Z,40.00
2019-04-05T01:25:15.537Z,39.60
2019-04-05T01:26:23.205Z,37.20
2019-04-05T01:27:26.289Z,37.00
2019-04-05T01:28:28.681Z,37.20
2019-04-05T01:29:30.945Z,38.40
2019-04-05T01:30:33.403Z,39.40
2019-04-05T01:31:35.611Z,39.80
2019-04-05T01:32:37.851Z,38.60
2019-04-05T01:33:40.033Z,39.80
2019-04-05T01:34:42.337Z,38.60
2019-04-05T01:35:44.741Z,37.00
2019-04-05T01:36:47.029Z,38.00
2019-04-05T01:37:49.743Z,42.20
2019-04-05T01:38:51.695Z,39.40
2019-04-05T01:39:53.609Z,37.80
2019-04-05T01:40:56.763Z,40.20
2019-04-05T01:41:59.292Z,36.20
2019-04-05T01:43:01.371Z,36.40
2019-04-05T01:44:03.609Z,37.00
2019-04-05T01:45:07.361Z,37.60
2019-04-05T01:46:09.411Z,36.20
2019-04-05T01:47:12.313Z,37.20
2019-04-05T01:48:14.091Z,37.60
2019-04-05T01:49:16.523Z,39.20
2019-04-05T01:50:19.202Z,37.00
2019-04-05T01:51:21.824Z,38.80
2019-04-05T01:52:24.013Z,38.40
2019-04-05T01:53:26.270Z,39.20
2019-04-05T01:54:29.216Z,38.40
2019-04-05T01:55:31.716Z,40.20
2019-04-05T01:56:34.234Z,37.60
2019-04-05T01:57:37.006Z,41.40
2019-04-05T01:58:38.783Z,38.00
2019-04-05T01:59:42.232Z,38.20
2019-04-05T02:00:44.600Z,36.40
2019-04-05T02:01:47.163Z,38.60
2019-04-05T02:02:49.382Z,38.40
2019-04-05T02:03:51.082Z,37.40
2019-04-05T02:04:53.727Z,37.60
2019-04-05T02:05:55.822Z,38.80
2019-04-05T02:06:58.434Z,39.60
2019-04-05T02:08:00.671Z,39.00
2019-04-05T02:09:08.478Z,39.00
2019-04-05T02:10:11.161Z,40.40
2019-04-05T02:11:13.506Z,37.00
2019-04-05T02:12:16.995Z,40.60
2019-04-05T02:13:18.932Z,38.20
2019-04-05T02:14:21.715Z,39.20
2019-04-05T02:15:29.574Z,40.00
2019-04-05T02:16:31.775Z,40.00
2019-04-05T02:17:35.933Z,37.00
2019-04-05T02:18:38.016Z,37.00
2019-04-05T02:19:40.333Z,39.40
2019-04-05T02:20:42.458Z,37.00
2019-04-05T02:21:44.350Z,40.00
2019-04-05T02:22:46.793Z,36.80
2019-04-05T02:23:50.552Z,40.00
2019-04-05T02:24:53.095Z,37.40
2019-04-05T02:25:55.315Z,38.80
2019-04-05T02:26:57.757Z,40.40
2019-04-05T02:28:01.523Z,36.00
2019-04-05T02:29:04.233Z,38.00
2019-04-05T02:30:08.263Z,37.00
2019-04-05T02:31:10.301Z,38.20
2019-04-05T02:32:12.605Z,40.00
2019-04-05T02:33:15.270Z,35.60
2019-04-05T02:34:17.184Z,39.40
2019-04-05T02:35:20.011Z,38.40
2019-04-05T02:36:22.407Z,36.40
2019-04-05T02:37:24.999Z,39.00
2019-04-05T02:38:27.485Z,37.60
2019-04-05T02:39:29.656Z,39.60
2019-04-05T02:40:34.864Z,37.20
2019-04-05T02:41:38.918Z,41.60
2019-04-05T02:42:43.316Z,37.00
2019-04-05T02:43:46.579Z,39.20
2019-04-05T02:44:51.092Z,38.60
2019-04-05T02:45:54.490Z,38.80
2019-04-05T02:46:56.601Z,40.20
2019-04-05T02:48:03.636Z,37.60
2019-04-05T02:49:06.021Z,41.40
2019-04-05T02:50:09.072Z,35.00
2019-04-05T02:51:15.001Z,39.60
2019-04-05T02:52:19.223Z,37.60
2019-04-05T02:53:22.562Z,38.40
2019-04-05T02:54:25.288Z,41.60
2019-04-05T02:55:29.945Z,37.60
2019-04-05T02:56:33.037Z,39.60
2019-04-05T02:57:35.779Z,39.20
2019-04-05T02:58:39.830Z,39.00
2019-04-05T02:59:43.124Z,39.60
2019-04-05T03:00:45.606Z,39.00
2019-04-05T03:01:48.850Z,39.80
2019-04-05T03:02:52.155Z,37.80
2019-04-05T03:03:54.823Z,37.00
2019-04-05T03:04:57.186Z,41.60
2019-04-05T03:05:59.478Z,50.60
2019-04-05T03:07:02.328Z,39.20
2019-04-05T03:08:05.469Z,36.60
2019-04-05T03:09:08.841Z,38.80
2019-04-05T03:10:45.594Z,38.20
2019-04-05T03:11:48.453Z,38.00
2019-04-05T03:12:50.458Z,39.60
2019-04-05T03:13:56.646Z,37.80
2019-04-05T03:15:01.850Z,40.40
2019-04-05T03:16:09.743Z,39.00
2019-04-05T03:17:12.619Z,38.60
2019-04-05T03:18:15.377Z,37.00
2019-04-05T03:19:22.340Z,36.80
2019-04-05T03:20:24.894Z,35.20
2019-04-05T03:21:28.330Z,36.00
2019-04-05T03:22:33.982Z,36.80
2019-04-05T03:23:41.414Z,39.00
2019-04-05T03:24:44.904Z,36.60
2019-04-05T03:25:48.450Z,38.00
2019-04-05T03:26:55.819Z,39.80
2019-04-05T03:28:01.076Z,36.60
2019-04-05T03:29:07.319Z,37.80
2019-04-05T03:30:09.751Z,40.60
2019-04-05T03:31:12.742Z,41.00
2019-04-05T03:32:16.070Z,38.60
2019-04-05T03:33:18.738Z,37.00
2019-04-05T03:34:21.483Z,39.00
2019-04-05T03:35:24.720Z,41.20
2019-04-05T03:36:27.107Z,40.20
2019-04-05T03:37:28.958Z,40.20
2019-04-05T03:38:31.519Z,37.80
2019-04-05T03:39:33.994Z,39.80
2019-04-05T03:40:37.403Z,39.00
2019-04-05T03:41:40.245Z,39.00
2019-04-05T03:42:42.622Z,36.80
2019-04-05T03:43:45.108Z,40.20
2019-04-05T03:44:47.612Z,37.60
2019-04-05T03:45:49.780Z,39.00
2019-04-05T03:46:56.791Z,38.00
2019-04-05T03:47:57.620Z,40.80
2019-04-05T03:48:59.666Z,39.00
2019-04-05T03:50:05.922Z,40.80
2019-04-05T03:51:08.018Z,43.00
2019-04-05T03:52:10.524Z,42.00
2019-04-05T03:53:14.019Z,44.00
2019-04-05T03:54:16.266Z,37.00
2019-04-05T03:55:18.391Z,40.40
2019-04-05T03:56:20.899Z,39.40
2019-04-05T03:57:24.007Z,39.80
2019-04-05T03:58:27.106Z,39.40
2019-04-05T03:59:29.467Z,37.20
2019-04-05T04:00:32.404Z,40.80
2019-04-05T04:01:35.050Z,40.00
2019-04-05T04:02:37.243Z,39.40
2019-04-05T04:03:39.312Z,36.80
2019-04-05T04:04:42.436Z,40.60
2019-04-05T04:05:44.718Z,37.40
2019-04-05T04:06:46.650Z,36.60
2019-04-05T04:07:49.034Z,39.80
2019-04-05T04:08:51.447Z,40.60
2019-04-05T04:09:53.536Z,37.00
2019-04-05T04:10:55.892Z,37.20
2019-04-05T04:11:58.669Z,40.00
2019-04-05T04:13:00.964Z,38.80
2019-04-05T04:14:04.177Z,39.60
2019-04-05T04:15:14.229Z,38.60
2019-04-05T04:16:17.798Z,41.80
2019-04-05T04:17:20.573Z,37.40
2019-04-05T04:18:22.925Z,40.00
2019-04-05T04:19:25.846Z,39.60
2019-04-05T04:20:42.939Z,37.80
2019-04-05T04:21:59.416Z,41.00
2019-04-05T04:23:02.676Z,39.40
2019-04-05T04:24:06.140Z,39.60
2019-04-05T04:25:08.303Z,40.60
2019-04-05T04:26:11.147Z,38.20
2019-04-05T04:27:14.538Z,41.40
2019-04-05T04:28:16.828Z,39.00
2019-04-05T04:29:19.719Z,36.20
2019-04-05T04:30:22.142Z,37.80
2019-04-05T04:31:24.481Z,37.20
2019-04-05T04:32:28.801Z,40.20
2019-04-05T04:33:31.583Z,38.80
2019-04-05T04:34:34.102Z,38.40
2019-04-05T04:35:36.941Z,38.20
2019-04-05T04:36:39.273Z,38.00
2019-04-05T04:37:41.136Z,39.80
2019-04-05T04:38:44.268Z,39.00
2019-04-05T04:39:47.122Z,38.60
2019-04-05T04:40:49.408Z,37.20
2019-04-05T04:41:51.919Z,37.60
2019-04-05T04:42:54.649Z,37.40
2019-04-05T04:43:57.733Z,37.60
2019-04-05T04:45:11.811Z,39.40
2019-04-05T04:46:06.385Z,39.80
2019-04-05T04:47:10.003Z,39.40
2019-04-05T04:48:12.491Z,40.00
2019-04-05T04:49:15.098Z,36.20
2019-04-05T04:50:18.127Z,41.80
2019-04-05T04:51:20.350Z,36.00
2019-04-05T04:52:22.764Z,38.00
2019-04-05T04:53:25.471Z,40.20
2019-04-05T04:54:28.526Z,37.60
2019-04-05T04:55:31.106Z,39.20
2019-04-05T04:56:34.636Z,36.20
2019-04-05T04:57:37.527Z,39.60
2019-04-05T04:58:39.922Z,36.40
2019-04-05T04:59:42.681Z,42.40
2019-04-05T05:00:44.579Z,41.60
2019-04-05T05:01:47.578Z,40.40
2019-04-05T05:02:50.020Z,41.00
2019-04-05T05:03:53.456Z,40.80
2019-04-05T05:04:55.820Z,42.60
2019-04-05T05:05:58.236Z,41.80
2019-04-05T05:07:00.162Z,36.20
2019-04-05T05:08:02.951Z,39.00
2019-04-05T05:09:06.450Z,38.80
2019-04-05T05:10:09.013Z,41.80
2019-04-05T05:11:14.884Z,36.80
2019-04-05T05:12:15.700Z,38.20
2019-04-05T05:13:18.029Z,38.20
2019-04-05T05:14:20.819Z,36.80
2019-04-05T05:15:23.546Z,39.40
2019-04-05T05:16:26.048Z,37.80
2019-04-05T05:17:37.955Z,38.00
2019-04-05T05:18:33.003Z,38.20
2019-04-05T05:19:35.321Z,37.40
2019-04-05T05:20:37.644Z,36.40
2019-04-05T05:21:39.721Z,35.60
2019-04-05T05:22:42.382Z,37.60
2019-04-05T05:23:44.673Z,37.80
2019-04-05T05:24:47.138Z,34.00
2019-04-05T05:25:50.246Z,39.80
2019-04-05T05:26:53.211Z,37.40
2019-04-05T05:27:55.464Z,39.20
2019-04-05T05:28:57.772Z,37.20
2019-04-05T05:30:00.702Z,38.40
2019-04-05T05:31:03.703Z,38.80
2019-04-05T05:32:09.496Z,38.20
2019-04-05T05:33:10.789Z,38.40
2019-04-05T05:34:13.776Z,36.00
2019-04-05T05:35:15.935Z,37.20
2019-04-05T05:36:18.901Z,37.00
2019-04-05T05:37:21.199Z,36.80
2019-04-05T05:38:23.456Z,36.80
2019-04-05T05:39:25.859Z,38.40
2019-04-05T05:40:34.743Z,37.00
2019-04-05T05:41:31.951Z,37.00
2019-04-05T05:42:34.600Z,36.00
2019-04-05T05:43:36.885Z,36.20
2019-04-05T05:44:39.052Z,37.20
2019-04-05T05:45:41.432Z,35.60
2019-04-05T05:46:44.799Z,36.80
2019-04-05T05:47:52.051Z,34.80
2019-04-05T05:48:51.035Z,36.60
2019-04-05T05:49:53.460Z,35.40
2019-04-05T05:50:56.246Z,37.60
2019-04-05T05:51:59.452Z,36.80
2019-04-05T05:53:02.036Z,36.00
2019-04-05T05:54:04.490Z,35.20
2019-04-05T05:55:07.586Z,33.40
2019-04-05T05:56:09.767Z,37.20
2019-04-05T05:57:12.354Z,36.60
2019-04-05T05:58:14.317Z,37.80
2019-04-05T05:59:16.756Z,36.00
2019-04-05T06:00:21.266Z,36.00
2019-04-05T06:01:23.969Z,38.20
2019-04-05T06:02:26.548Z,37.60
2019-04-05T06:03:28.825Z,36.60
2019-04-05T06:04:31.170Z,35.80
2019-04-05T06:05:33.847Z,36.40
2019-04-05T06:06:36.417Z,39.20
2019-04-05T06:07:38.543Z,37.20
2019-04-05T06:08:41.086Z,39.20
2019-04-05T06:09:47.610Z,37.00
2019-04-05T06:10:48.784Z,35.00
2019-04-05T06:11:51.270Z,40.40
2019-04-05T06:12:53.369Z,38.60
2019-04-05T06:13:55.777Z,35.20
2019-04-05T06:14:58.303Z,36.00
2019-04-05T06:16:00.355Z,35.20
2019-04-05T06:17:02.837Z,36.00
2019-04-05T06:18:05.308Z,38.00
2019-04-05T06:19:07.744Z,37.00
2019-04-05T06:20:11.923Z,37.20
2019-04-05T06:21:13.959Z,36.20
2019-04-05T06:22:15.940Z,38.40
2019-04-05T06:23:17.927Z,40.20
2019-04-05T06:24:20.209Z,39.80
2019-04-05T06:25:22.791Z,39.60
2019-04-05T06:26:25.312Z,37.00
2019-04-05T06:27:28.538Z,39.00
2019-04-05T06:28:30.912Z,39.00
2019-04-05T06:29:33.611Z,38.60
2019-04-05T06:30:36.082Z,39.00
2019-04-05T06:31:38.445Z,36.40
2019-04-05T06:32:40.721Z,35.20
2019-04-05T06:33:42.858Z,36.80
2019-04-05T06:34:44.932Z,34.00
2019-04-05T06:35:47.413Z,39.40
2019-04-05T06:36:51.273Z,32.60
2019-04-05T06:37:53.496Z,35.00
2019-04-05T06:38:55.689Z,33.80
2019-04-05T06:39:57.479Z,33.20
2019-04-05T06:40:59.882Z,36.20
2019-04-05T06:42:01.975Z,32.60
2019-04-05T06:43:06.669Z,37.20
2019-04-05T06:44:08.489Z,37.20
2019-04-05T06:45:12.073Z,33.20
2019-04-05T06:46:14.410Z,36.00
2019-04-05T06:47:16.633Z,34.00
2019-04-05T06:48:20.045Z,36.00
2019-04-05T06:49:22.439Z,33.60
2019-04-05T06:50:25.118Z,31.20
2019-04-05T06:51:27.066Z,32.40
2019-04-05T06:52:28.740Z,36.00
2019-04-05T06:53:30.879Z,33.00
2019-04-05T06:54:32.719Z,34.40
2019-04-05T06:55:34.931Z,35.60
2019-04-05T06:56:37.167Z,32.00
2019-04-05T06:57:40.764Z,31.00
2019-04-05T06:58:46.132Z,39.00
2019-04-05T06:59:50.024Z,35.40
2019-04-05T07:00:57.207Z,32.00
2019-04-05T07:01:56.502Z,32.00
2019-04-05T07:03:00.115Z,38.00
2019-04-05T07:04:03.149Z,32.80
2019-04-05T07:05:06.154Z,29.60
2019-04-05T07:06:08.490Z,32.80
2019-04-05T07:07:11.120Z,34.60
2019-04-05T07:08:13.799Z,32.00
2019-04-05T07:09:17.488Z,35.80
2019-04-05T07:10:19.378Z,38.80
2019-04-05T07:11:21.940Z,32.40
2019-04-05T07:12:24.912Z,32.60
2019-04-05T07:13:27.719Z,32.00
2019-04-05T07:14:29.985Z,34.20
2019-04-05T07:15:32.559Z,34.00
2019-04-05T07:16:35.531Z,36.40
2019-04-05T07:17:38.098Z,31.40
2019-04-05T07:18:40.183Z,35.00
2019-04-05T07:19:42.380Z,33.40
2019-04-05T07:20:44.668Z,37.60
2019-04-05T07:21:47.420Z,30.40
2019-04-05T07:22:49.909Z,35.00
2019-04-05T07:23:52.345Z,29.20
2019-04-05T07:24:54.723Z,31.40
2019-04-05T07:25:56.788Z,32.60
2019-04-05T07:26:59.065Z,32.80
2019-04-05T07:28:02.134Z,32.80
2019-04-05T07:29:04.744Z,36.00
2019-04-05T07:30:08.913Z,34.40
2019-04-05T07:31:11.257Z,33.00
2019-04-05T07:32:13.647Z,32.80
2019-04-05T07:33:16.092Z,32.00
2019-04-05T07:34:18.282Z,32.20
2019-04-05T07:35:32.393Z,36.40
2019-04-05T07:36:24.205Z,32.60
2019-04-05T07:37:26.768Z,35.00
2019-04-05T07:38:29.389Z,30.20
2019-04-05T07:39:31.816Z,36.00
2019-04-05T07:40:34.048Z,30.60
2019-04-05T07:41:36.603Z,30.40
2019-04-05T07:42:38.552Z,35.60
2019-04-05T07:43:40.546Z,32.80
2019-04-05T07:44:42.860Z,33.80
2019-04-05T07:45:46.099Z,35.60
2019-04-05T07:46:48.582Z,32.80
2019-04-05T07:47:51.081Z,29.60
2019-04-05T07:48:53.131Z,30.00
2019-04-05T07:49:55.561Z,33.40
2019-04-05T07:50:57.800Z,32.20
2019-04-05T07:52:00.728Z,29.60
2019-04-05T07:53:03.211Z,32.00
2019-04-05T07:54:05.498Z,31.00
2019-04-05T07:55:08.388Z,32.80
2019-04-05T07:56:10.572Z,32.00
2019-04-05T07:57:13.138Z,30.00
2019-04-05T07:58:15.014Z,31.40
2019-04-05T07:59:17.166Z,32.80
2019-04-05T08:00:51.832Z,33.00
2019-04-05T08:01:53.938Z,32.20
2019-04-05T08:02:56.425Z,33.20
2019-04-05T08:03:58.331Z,32.20
2019-04-05T08:05:00.670Z,29.20
2019-04-05T08:06:03.817Z,31.40
2019-04-05T08:07:06.011Z,31.60
2019-04-05T08:08:15.091Z,34.00
2019-04-05T08:09:18.002Z,34.00
2019-04-05T08:10:22.207Z,26.80
2019-04-05T08:11:26.638Z,32.00
2019-04-05T08:12:28.815Z,33.00
2019-04-05T08:13:34.716Z,34.20
2019-04-05T08:14:38.237Z,33.80
2019-04-05T08:15:41.247Z,35.00
2019-04-05T08:16:43.481Z,34.40
2019-04-05T08:17:46.023Z,29.00
2019-04-05T08:18:57.692Z,31.40
2019-04-05T08:19:54.186Z,31.80
2019-04-05T08:20:56.270Z,32.40
2019-04-05T08:21:58.076Z,31.80
2019-04-05T08:23:00.246Z,29.00
2019-04-05T08:24:03.163Z,29.00
2019-04-05T08:25:05.457Z,34.20
2019-04-05T08:26:07.830Z,25.80
2019-04-05T08:27:09.913Z,31.00
2019-04-05T08:28:11.733Z,33.40
2019-04-05T08:29:14.247Z,31.80
2019-04-05T08:30:16.887Z,33.00
2019-04-05T08:31:22.846Z,30.00
2019-04-05T08:32:25.173Z,30.00
2019-04-05T08:33:27.241Z,26.60
2019-04-05T08:34:32.522Z,29.40
2019-04-05T08:35:34.919Z,28.40
2019-04-05T08:36:37.093Z,33.00
2019-04-05T08:37:40.882Z,31.40
2019-04-05T08:38:43.943Z,27.00
2019-04-05T08:39:45.724Z,31.40
2019-04-05T08:40:47.983Z,29.80
2019-04-05T08:41:50.309Z,29.00
2019-04-05T08:42:52.322Z,30.00
2019-04-05T08:43:54.910Z,29.00
2019-04-05T08:44:57.236Z,30.20
2019-04-05T08:45:58.903Z,30.00
2019-04-05T08:47:01.335Z,28.00
2019-04-05T08:48:04.361Z,27.00
2019-04-05T08:49:10.968Z,26.80
2019-04-05T08:50:11.075Z,27.60
2019-04-05T08:51:13.272Z,32.40
2019-04-05T08:52:15.494Z,29.60
2019-04-05T08:53:17.766Z,34.60
2019-04-05T08:54:31.835Z,29.20
2019-04-05T08:55:23.841Z,29.20
2019-04-05T08:56:26.194Z,27.00
2019-04-05T08:57:28.241Z,27.60
2019-04-05T08:58:33.593Z,27.40
2019-04-05T08:59:35.334Z,23.80
2019-04-05T09:00:37.604Z,25.60
2019-04-05T09:01:40.221Z,26.20
2019-04-05T09:02:42.473Z,26.60
2019-04-05T09:03:44.367Z,26.00
2019-04-05T09:04:46.782Z,27.00
2019-04-05T09:05:48.876Z,29.20
2019-04-05T09:06:51.132Z,24.60
2019-04-05T09:07:53.716Z,25.60
2019-04-05T09:08:55.963Z,28.00
2019-04-05T09:09:58.499Z,27.20
2019-04-05T09:11:00.883Z,26.60
2019-04-05T09:12:03.256Z,25.60
2019-04-05T09:13:05.710Z,25.80
2019-04-05T09:14:08.539Z,27.60
2019-04-05T09:15:11.594Z,27.80
2019-04-05T09:16:14.994Z,27.20
2019-04-05T09:17:18.290Z,29.00
2019-04-05T09:18:20.291Z,29.00
2019-04-05T09:19:24.098Z,23.00
2019-04-05T09:20:26.335Z,28.20
2019-04-05T09:21:28.965Z,30.00
2019-04-05T09:22:30.862Z,24.60
2019-04-05T09:23:33.065Z,28.20
2019-04-05T09:24:35.383Z,25.20
2019-04-05T09:25:37.995Z,26.00
2019-04-05T09:26:39.983Z,26.40
2019-04-05T09:27:42.446Z,26.60
2019-04-05T09:28:44.217Z,28.80
2019-04-05T09:29:46.555Z,25.20
2019-04-05T09:30:51.778Z,26.80
2019-04-05T09:31:53.659Z,26.80
2019-04-05T09:32:55.950Z,26.40
2019-04-05T09:33:58.008Z,29.00
2019-04-05T09:35:00.031Z,26.60
2019-04-05T09:36:02.591Z,26.80
2019-04-05T09:37:04.796Z,27.40
2019-04-05T09:38:07.041Z,25.60
2019-04-05T09:39:15.300Z,26.60
2019-04-05T09:40:14.823Z,25.20
2019-04-05T09:41:17.165Z,26.80
2019-04-05T09:42:19.058Z,26.60
2019-04-05T09:43:21.138Z,28.80
2019-04-05T09:44:25.449Z,28.80
2019-04-05T09:45:27.618Z,27.80
2019-04-05T09:46:30.056Z,29.40
2019-04-05T09:47:32.364Z,29.00
2019-04-05T09:48:34.591Z,28.60
2019-04-05T09:49:37.342Z,27.40
2019-04-05T09:50:39.840Z,25.60
2019-04-05T09:51:41.996Z,29.60
2019-04-05T09:52:44.445Z,28.80
2019-04-05T09:53:46.638Z,29.20
2019-04-05T09:54:48.688Z,29.00
2019-04-05T09:55:52.108Z,28.20
2019-04-05T09:56:56.774Z,29.00
2019-04-05T09:57:58.378Z,30.00
2019-04-05T09:59:00.701Z,26.40
2019-04-05T10:00:12.146Z,27.20
2019-04-05T10:01:14.717Z,29.60
2019-04-05T10:02:17.324Z,31.20
2019-04-05T10:03:19.690Z,31.40
2019-04-05T10:04:21.512Z,29.00
2019-04-05T10:05:24.562Z,30.80
2019-04-05T10:06:26.713Z,33.00
2019-04-05T10:07:28.507Z,29.00
2019-04-05T10:08:30.920Z,29.00
2019-04-05T10:09:32.590Z,25.80
2019-04-05T10:10:34.953Z,28.60
2019-04-05T10:11:37.182Z,29.80
2019-04-05T10:12:39.232Z,30.40
2019-04-05T10:13:41.516Z,29.20
2019-04-05T10:14:43.852Z,28.00
2019-04-05T10:15:45.563Z,29.20
2019-04-05T10:16:49.041Z,29.00
2019-04-05T10:17:51.258Z,29.00
2019-04-05T10:18:53.337Z,30.40
2019-04-05T10:19:55.701Z,29.80
2019-04-05T10:20:57.947Z,27.60
2019-04-05T10:21:59.669Z,30.60
2019-04-05T10:23:01.900Z,31.40
2019-04-05T10:24:04.493Z,31.80
2019-04-05T10:25:08.109Z,31.40
2019-04-05T10:26:10.410Z,30.80
2019-04-05T10:27:12.360Z,30.00
2019-04-05T10:28:14.286Z,28.80
2019-04-05T10:29:16.598Z,29.20
2019-04-05T10:30:19.604Z,28.80
2019-04-05T10:31:22.556Z,30.20
2019-04-05T10:32:24.638Z,31.40
2019-04-05T10:33:26.538Z,30.20
2019-04-05T10:34:28.475Z,29.40
2019-04-05T10:35:30.856Z,30.80
2019-04-05T10:36:33.371Z,29.60
2019-04-05T10:37:35.452Z,28.60
2019-04-05T10:38:38.709Z,29.60
2019-04-05T10:39:41.275Z,29.40
2019-04-05T10:40:43.497Z,27.80
2019-04-05T10:41:45.594Z,29.40
2019-04-05T10:42:47.740Z,27.80
2019-04-05T10:43:50.216Z,29.40
2019-04-05T10:44:52.435Z,28.80
2019-04-05T10:45:55.770Z,29.00
2019-04-05T10:46:58.265Z,30.20
2019-04-05T10:48:00.902Z,27.40
2019-04-05T10:49:02.900Z,27.60
2019-04-05T10:50:08.265Z,28.20
2019-04-05T10:51:10.645Z,28.00
2019-04-05T10:52:12.886Z,28.40
2019-04-05T10:53:15.180Z,28.20
2019-04-05T10:54:17.283Z,31.80
2019-04-05T10:55:19.686Z,29.20
2019-04-05T10:56:21.985Z,30.40
2019-04-05T10:57:24.500Z,28.60
2019-04-05T10:58:27.312Z,28.60
2019-04-05T10:59:29.431Z,29.60
2019-04-05T11:00:31.861Z,25.20
2019-04-05T11:01:34.337Z,28.20
2019-04-05T11:02:36.668Z,26.20
2019-04-05T11:03:38.378Z,26.40
2019-04-05T11:04:40.730Z,30.80
2019-04-05T11:05:44.543Z,29.00
2019-04-05T11:06:47.085Z,27.60
2019-04-05T11:07:49.281Z,30.80
2019-04-05T11:08:51.479Z,29.00
2019-04-05T11:09:53.771Z,28.80
2019-04-05T11:10:56.025Z,28.00
2019-04-05T11:11:58.290Z,28.60
2019-04-05T11:13:00.641Z,29.00
2019-04-05T11:14:13.240Z,29.80
2019-04-05T11:15:08.009Z,28.00
2019-04-05T11:16:11.723Z,31.80
2019-04-05T11:17:14.253Z,29.80
2019-04-05T11:18:16.544Z,31.00
2019-04-05T11:19:20.580Z,31.00
2019-04-05T11:20:23.003Z,29.40
2019-04-05T11:21:25.131Z,31.40
2019-04-05T11:22:27.240Z,31.00
2019-04-05T11:23:29.706Z,30.40
2019-04-05T11:24:31.451Z,29.40
2019-04-05T11:25:33.302Z,31.00
2019-04-05T11:26:35.468Z,30.40
2019-04-05T11:27:37.781Z,32.00
2019-04-05T11:28:39.546Z,29.20
2019-04-05T11:29:42.054Z,29.60
2019-04-05T11:30:45.645Z,30.00
2019-04-05T11:31:56.858Z,30.00
2019-04-05T11:32:52.420Z,31.40
2019-04-05T11:33:54.757Z,31.00
2019-04-05T11:34:57.328Z,31.00
2019-04-05T11:35:59.861Z,30.80
2019-04-05T11:37:02.931Z,31.00
2019-04-05T11:38:06.659Z,30.00
2019-04-05T11:39:09.184Z,31.00
2019-04-05T11:40:11.859Z,29.40
2019-04-05T11:41:14.753Z,31.60
2019-04-05T11:42:19.342Z,31.40
2019-04-05T11:43:26.213Z,27.20
2019-04-05T11:44:28.082Z,31.80
2019-04-05T11:45:33.384Z,31.60
2019-04-05T11:46:37.499Z,30.80
2019-04-05T11:47:40.164Z,32.00
2019-04-05T11:48:43.108Z,29.00
2019-04-05T11:49:46.915Z,29.80
2019-04-05T11:50:49.089Z,31.40
2019-04-05T11:51:51.716Z,31.00
2019-04-05T11:52:54.154Z,28.80
2019-04-05T11:53:57.368Z,30.60
2019-04-05T11:54:59.372Z,30.80
2019-04-05T11:56:13.911Z,31.00
2019-04-05T11:57:05.726Z,30.80
2019-04-05T11:58:07.503Z,33.80
2019-04-05T11:59:13.383Z,30.40
2019-04-05T12:00:20.455Z,30.60
2019-04-05T12:01:24.811Z,30.40
2019-04-05T12:02:29.143Z,30.60
2019-04-05T12:03:32.815Z,29.20
2019-04-05T12:04:35.264Z,32.80
2019-04-05T12:05:37.417Z,31.00
2019-04-05T12:06:39.708Z,30.60
2019-04-05T12:07:41.848Z,30.80
2019-04-05T12:08:44.600Z,29.60
2019-04-05T12:09:48.051Z,30.60
2019-04-05T12:10:51.069Z,29.60
2019-04-05T12:11:54.412Z,30.80
2019-04-05T12:12:56.503Z,30.60
2019-04-05T12:13:58.905Z,29.80
2019-04-05T12:15:01.155Z,29.80
2019-04-05T12:16:06.160Z,29.60
2019-04-05T12:17:09.732Z,28.80
2019-04-05T12:18:12.167Z,28.80
2019-04-05T12:19:14.923Z,28.60
2019-04-05T12:20:18.043Z,28.40
2019-04-05T12:21:21.054Z,28.80
2019-04-05T12:22:23.741Z,30.00
2019-04-05T12:23:25.843Z,29.80
2019-04-05T12:24:28.450Z,30.60
2019-04-05T12:25:33.437Z,30.60
2019-04-05T12:26:35.215Z,29.60
2019-04-05T12:27:37.259Z,28.60
2019-04-05T12:28:39.247Z,29.60
2019-04-05T12:29:43.186Z,28.40
2019-04-05T12:30:46.846Z,29.40
2019-04-05T12:31:49.206Z,29.80
2019-04-05T12:32:51.828Z,28.80
2019-04-05T12:33:53.537Z,31.00
2019-04-05T12:34:55.689Z,30.00
2019-04-05T12:35:58.205Z,30.00
2019-04-05T12:37:00.515Z,28.20
2019-04-05T12:38:03.204Z,29.80
2019-04-05T12:39:08.163Z,28.20
2019-04-05T12:40:11.259Z,28.40
2019-04-05T12:41:14.076Z,31.00
2019-04-05T12:42:16.237Z,30.00
2019-04-05T12:43:18.675Z,33.80
2019-04-05T12:44:20.805Z,30.80
2019-04-05T12:45:25.770Z,29.00
2019-04-05T12:46:29.194Z,30.40
2019-04-05T12:47:33.973Z,28.60
2019-04-05T12:48:36.091Z,27.80
2019-04-05T12:49:38.506Z,28.60
2019-04-05T12:50:44.494Z,28.20
2019-04-05T12:51:45.567Z,30.60
2019-04-05T12:52:48.215Z,28.60
2019-04-05T12:53:50.338Z,28.60
2019-04-05T12:54:54.855Z,27.40
2019-04-05T12:55:57.131Z,29.00
2019-04-05T12:56:59.712Z,28.60
2019-04-05T12:58:01.660Z,28.00
2019-04-05T12:59:04.221Z,28.20
2019-04-05T13:00:13.300Z,28.40
2019-04-05T13:01:16.055Z,30.00
2019-04-05T13:02:23.589Z,28.40
2019-04-05T13:03:22.072Z,28.00
2019-04-05T13:04:24.365Z,27.80
2019-04-05T13:05:26.570Z,27.80
2019-04-05T13:06:28.876Z,27.80
2019-04-05T13:07:31.417Z,29.00
2019-04-05T13:08:33.685Z,28.20
2019-04-05T13:09:35.505Z,28.00
2019-04-05T13:10:37.891Z,26.80
2019-04-05T13:11:41.914Z,26.80
2019-04-05T13:12:43.984Z,27.80
2019-04-05T13:13:46.135Z,29.20
2019-04-05T13:14:48.325Z,27.00
2019-04-05T13:15:50.305Z,26.40
2019-04-05T13:16:52.607Z,27.60
2019-04-05T13:17:54.697Z,27.00
2019-04-05T13:19:00.452Z,28.80
2019-04-05T13:20:03.273Z,28.00
2019-04-05T13:21:14.423Z,27.80
2019-04-05T13:22:09.131Z,27.80
2019-04-05T13:23:11.375Z,27.20
2019-04-05T13:24:13.985Z,28.20
2019-04-05T13:25:16.471Z,28.00
2019-04-05T13:26:18.921Z,27.40
2019-04-05T13:27:20.965Z,27.20
2019-04-05T13:28:22.980Z,28.20
2019-04-05T13:29:25.287Z,27.00
2019-04-05T13:30:27.927Z,27.60